sensor_id;sensor_type;location;lat;lon;timestamp;P1;durP1;ratioP1;P2;durP2;ratioP2
37409;SDS011;23275;48.914;12.566;2023-05-23T00:01:03;14.57;;;11.32;;
37409;SDS011;23275;48.914;12.566;2023-05-23T00:03:31;15.82;;;11.07;;
37409;SDS011;23275;48.914;12.566;2023-05-23T00:05:57;13.52;;;11.32;;
37409;SDS011;23275;48.914;12.566;2023-05-23T00:08:23;14.05;;;11.75;;
37409;SDS011;23275;48.914;12.566;2023-05-23T00:10:49;12.73;;;10.55;;
37409;SDS011;23275;48.914;12.566;2023-05-23T00:13:14;12.35;;;9.63;;
37409;SDS011;23275;48.914;12.566;2023-05-23T00:15:40;14.98;;;11.25;;
37409;SDS011;23275;48.914;12.566;2023-05-23T00:18:06;13.90;;;11.55;;
37409;SDS011;23275;48.914;12.566;2023-05-23T00:20:39;13.35;;;11.82;;
37409;SDS011;23275;48.914;12.566;2023-05-23T00:23:06;13.57;;;10.77;;
37409;SDS011;23275;48.914;12.566;2023-05-23T00:25:37;12.75;;;10.25;;
37409;SDS011;23275;48.914;12.566;2023-05-23T00:28:04;13.90;;;11.02;;
37409;SDS011;23275;48.914;12.566;2023-05-23T00:30:31;12.40;;;10.85;;
37409;SDS011;23275;48.914;12.566;2023-05-23T00:32:57;13.13;;;11.35;;
37409;SDS011;23275;48.914;12.566;2023-05-23T00:35:24;13.38;;;11.50;;
37409;SDS011;23275;48.914;12.566;2023-05-23T00:37:50;13.18;;;10.75;;
37409;SDS011;23275;48.914;12.566;2023-05-23T00:40:16;14.43;;;12.57;;
37409;SDS011;23275;48.914;12.566;2023-05-23T00:42:42;16.35;;;12.55;;
37409;SDS011;23275;48.914;12.566;2023-05-23T00:45:08;15.15;;;13.55;;
37409;SDS011;23275;48.914;12.566;2023-05-23T00:47:36;14.30;;;11.88;;
37409;SDS011;23275;48.914;12.566;2023-05-23T00:50:03;14.70;;;13.10;;
37409;SDS011;23275;48.914;12.566;2023-05-23T00:52:31;14.05;;;12.50;;
37409;SDS011;23275;48.914;12.566;2023-05-23T00:54:57;12.60;;;11.13;;
37409;SDS011;23275;48.914;12.566;2023-05-23T00:57:22;15.57;;;12.15;;
37409;SDS011;23275;48.914;12.566;2023-05-23T00:59:48;16.20;;;12.57;;
37409;SDS011;23275;48.914;12.566;2023-05-23T01:02:13;15.02;;;11.32;;
37409;SDS011;23275;48.914;12.566;2023-05-23T01:04:39;14.63;;;12.13;;
37409;SDS011;23275;48.914;12.566;2023-05-23T01:07:05;12.57;;;11.02;;
37409;SDS011;23275;48.914;12.566;2023-05-23T01:09:31;13.70;;;11.73;;
37409;SDS011;23275;48.914;12.566;2023-05-23T01:14:56;13.48;;;11.23;;
37409;SDS011;23275;48.914;12.566;2023-05-23T01:17:34;12.90;;;11.05;;
37409;SDS011;23275;48.914;12.566;2023-05-23T01:20:08;13.95;;;10.52;;
37409;SDS011;23275;48.914;12.566;2023-05-23T01:28:07;12.68;;;10.30;;
37409;SDS011;23275;48.914;12.566;2023-05-23T01:30:38;14.57;;;11.32;;
37409;SDS011;23275;48.914;12.566;2023-05-23T01:33:05;15.05;;;10.88;;
37409;SDS011;23275;48.914;12.566;2023-05-23T01:35:33;12.50;;;10.00;;
37409;SDS011;23275;48.914;12.566;2023-05-23T01:37:59;13.20;;;10.32;;
37409;SDS011;23275;48.914;12.566;2023-05-23T01:40:25;12.60;;;10.00;;
37409;SDS011;23275;48.914;12.566;2023-05-23T01:42:51;12.60;;;10.95;;
37409;SDS011;23275;48.914;12.566;2023-05-23T01:45:19;11.02;;;9.38;;
37409;SDS011;23275;48.914;12.566;2023-05-23T01:47:45;11.13;;;9.68;;
37409;SDS011;23275;48.914;12.566;2023-05-23T01:50:13;16.73;;;10.90;;
37409;SDS011;23275;48.914;12.566;2023-05-23T01:52:39;12.25;;;9.93;;
37409;SDS011;23275;48.914;12.566;2023-05-23T01:55:05;11.95;;;9.77;;
37409;SDS011;23275;48.914;12.566;2023-05-23T01:57:34;14.48;;;10.55;;
37409;SDS011;23275;48.914;12.566;2023-05-23T02:00:01;12.18;;;10.02;;
37409;SDS011;23275;48.914;12.566;2023-05-23T02:02:27;11.75;;;9.50;;
37409;SDS011;23275;48.914;12.566;2023-05-23T02:04:53;11.20;;;9.85;;
37409;SDS011;23275;48.914;12.566;2023-05-23T02:07:21;13.68;;;10.05;;
37409;SDS011;23275;48.914;12.566;2023-05-23T02:09:47;12.45;;;10.65;;
37409;SDS011;23275;48.914;12.566;2023-05-23T02:12:13;11.55;;;9.95;;
37409;SDS011;23275;48.914;12.566;2023-05-23T02:14:39;12.00;;;10.13;;
37409;SDS011;23275;48.914;12.566;2023-05-23T02:17:06;12.68;;;10.18;;
37409;SDS011;23275;48.914;12.566;2023-05-23T02:19:35;12.63;;;10.60;;
37409;SDS011;23275;48.914;12.566;2023-05-23T02:22:01;15.07;;;11.43;;
37409;SDS011;23275;48.914;12.566;2023-05-23T02:24:27;15.20;;;10.90;;
37409;SDS011;23275;48.914;12.566;2023-05-23T02:26:53;11.88;;;10.45;;
37409;SDS011;23275;48.914;12.566;2023-05-23T02:29:18;12.70;;;10.85;;
37409;SDS011;23275;48.914;12.566;2023-05-23T02:31:44;16.92;;;11.63;;
37409;SDS011;23275;48.914;12.566;2023-05-23T02:34:10;14.00;;;11.90;;
37409;SDS011;23275;48.914;12.566;2023-05-23T02:36:35;17.58;;;12.50;;
37409;SDS011;23275;48.914;12.566;2023-05-23T02:39:04;14.68;;;12.18;;
37409;SDS011;23275;48.914;12.566;2023-05-23T02:41:30;12.88;;;11.57;;
37409;SDS011;23275;48.914;12.566;2023-05-23T02:43:56;15.02;;;12.18;;
37409;SDS011;23275;48.914;12.566;2023-05-23T02:46:22;15.68;;;13.68;;
37409;SDS011;23275;48.914;12.566;2023-05-23T02:48:48;14.85;;;13.18;;
37409;SDS011;23275;48.914;12.566;2023-05-23T02:51:15;14.40;;;12.02;;
37409;SDS011;23275;48.914;12.566;2023-05-23T02:53:40;13.82;;;10.18;;
37409;SDS011;23275;48.914;12.566;2023-05-23T02:56:06;13.35;;;11.15;;
37409;SDS011;23275;48.914;12.566;2023-05-23T02:58:32;13.48;;;11.30;;
37409;SDS011;23275;48.914;12.566;2023-05-23T03:01:01;17.45;;;11.73;;
37409;SDS011;23275;48.914;12.566;2023-05-23T03:03:28;15.05;;;12.00;;
37409;SDS011;23275;48.914;12.566;2023-05-23T03:05:54;14.77;;;12.57;;
37409;SDS011;23275;48.914;12.566;2023-05-23T03:08:20;16.27;;;13.23;;
37409;SDS011;23275;48.914;12.566;2023-05-23T03:10:45;14.38;;;12.32;;
37409;SDS011;23275;48.914;12.566;2023-05-23T03:13:11;13.98;;;12.48;;
37409;SDS011;23275;48.914;12.566;2023-05-23T03:15:36;17.25;;;13.60;;
37409;SDS011;23275;48.914;12.566;2023-05-23T03:18:02;17.55;;;14.18;;
37409;SDS011;23275;48.914;12.566;2023-05-23T03:20:27;14.68;;;12.23;;
37409;SDS011;23275;48.914;12.566;2023-05-23T03:22:53;19.77;;;14.05;;
37409;SDS011;23275;48.914;12.566;2023-05-23T03:25:18;16.85;;;13.95;;
37409;SDS011;23275;48.914;12.566;2023-05-23T03:27:44;16.25;;;13.70;;
37409;SDS011;23275;48.914;12.566;2023-05-23T03:30:10;17.27;;;13.30;;
37409;SDS011;23275;48.914;12.566;2023-05-23T03:32:36;15.88;;;13.82;;
37409;SDS011;23275;48.914;12.566;2023-05-23T03:35:01;18.00;;;13.52;;
37409;SDS011;23275;48.914;12.566;2023-05-23T03:37:27;16.42;;;13.35;;
37409;SDS011;23275;48.914;12.566;2023-05-23T03:39:52;18.33;;;13.73;;
37409;SDS011;23275;48.914;12.566;2023-05-23T03:42:18;17.92;;;14.05;;
37409;SDS011;23275;48.914;12.566;2023-05-23T03:44:43;14.98;;;13.32;;
37409;SDS011;23275;48.914;12.566;2023-05-23T03:47:09;15.00;;;13.27;;
37409;SDS011;23275;48.914;12.566;2023-05-23T03:49:35;18.42;;;14.55;;
37409;SDS011;23275;48.914;12.566;2023-05-23T03:52:01;15.73;;;13.52;;
37409;SDS011;23275;48.914;12.566;2023-05-23T03:54:26;15.25;;;12.52;;
37409;SDS011;23275;48.914;12.566;2023-05-23T03:56:52;14.82;;;12.93;;
37409;SDS011;23275;48.914;12.566;2023-05-23T03:59:17;15.55;;;12.93;;
37409;SDS011;23275;48.914;12.566;2023-05-23T04:01:43;16.65;;;12.48;;
37409;SDS011;23275;48.914;12.566;2023-05-23T04:04:09;15.52;;;12.90;;
37409;SDS011;23275;48.914;12.566;2023-05-23T04:06:34;15.10;;;12.52;;
37409;SDS011;23275;48.914;12.566;2023-05-23T04:09:00;15.40;;;13.55;;
37409;SDS011;23275;48.914;12.566;2023-05-23T04:11:27;16.40;;;13.80;;
37409;SDS011;23275;48.914;12.566;2023-05-23T04:13:52;15.75;;;13.43;;
37409;SDS011;23275;48.914;12.566;2023-05-23T04:16:18;19.00;;;14.27;;
37409;SDS011;23275;48.914;12.566;2023-05-23T04:18:43;17.20;;;14.30;;
37409;SDS011;23275;48.914;12.566;2023-05-23T04:21:11;16.10;;;13.95;;
37409;SDS011;23275;48.914;12.566;2023-05-23T04:23:37;16.55;;;13.63;;
37409;SDS011;23275;48.914;12.566;2023-05-23T04:26:02;16.30;;;13.68;;
37409;SDS011;23275;48.914;12.566;2023-05-23T04:28:29;17.13;;;13.43;;
37409;SDS011;23275;48.914;12.566;2023-05-23T04:30:55;15.60;;;12.95;;
37409;SDS011;23275;48.914;12.566;2023-05-23T04:33:22;17.58;;;13.07;;
37409;SDS011;23275;48.914;12.566;2023-05-23T04:35:48;15.80;;;13.50;;
37409;SDS011;23275;48.914;12.566;2023-05-23T04:38:14;16.50;;;13.65;;
37409;SDS011;23275;48.914;12.566;2023-05-23T04:40:39;17.95;;;13.10;;
37409;SDS011;23275;48.914;12.566;2023-05-23T04:43:05;17.23;;;13.38;;
37409;SDS011;23275;48.914;12.566;2023-05-23T04:45:33;17.58;;;12.82;;
37409;SDS011;23275;48.914;12.566;2023-05-23T04:47:58;14.07;;;11.98;;
37409;SDS011;23275;48.914;12.566;2023-05-23T04:50:24;13.63;;;12.05;;
37409;SDS011;23275;48.914;12.566;2023-05-23T04:52:50;16.50;;;11.93;;
37409;SDS011;23275;48.914;12.566;2023-05-23T04:55:15;12.55;;;11.20;;
37409;SDS011;23275;48.914;12.566;2023-05-23T04:57:41;15.27;;;12.00;;
37409;SDS011;23275;48.914;12.566;2023-05-23T05:00:06;13.82;;;11.90;;
37409;SDS011;23275;48.914;12.566;2023-05-23T05:02:35;14.98;;;12.18;;
37409;SDS011;23275;48.914;12.566;2023-05-23T05:05:02;13.90;;;11.35;;
37409;SDS011;23275;48.914;12.566;2023-05-23T05:07:31;12.93;;;11.10;;
37409;SDS011;23275;48.914;12.566;2023-05-23T05:09:56;13.25;;;11.63;;
37409;SDS011;23275;48.914;12.566;2023-05-23T05:12:22;12.48;;;11.07;;
37409;SDS011;23275;48.914;12.566;2023-05-23T05:14:48;14.75;;;12.23;;
37409;SDS011;23275;48.914;12.566;2023-05-23T05:17:13;15.35;;;12.93;;
37409;SDS011;23275;48.914;12.566;2023-05-23T05:19:39;15.80;;;11.88;;
37409;SDS011;23275;48.914;12.566;2023-05-23T05:22:04;13.77;;;12.13;;
37409;SDS011;23275;48.914;12.566;2023-05-23T05:24:31;14.50;;;11.93;;
37409;SDS011;23275;48.914;12.566;2023-05-23T05:26:57;18.65;;;11.88;;
37409;SDS011;23275;48.914;12.566;2023-05-23T05:29:23;16.00;;;12.82;;
37409;SDS011;23275;48.914;12.566;2023-05-23T05:31:49;15.82;;;12.50;;
37409;SDS011;23275;48.914;12.566;2023-05-23T05:34:16;14.60;;;11.73;;
37409;SDS011;23275;48.914;12.566;2023-05-23T05:36:42;15.70;;;12.23;;
37409;SDS011;23275;48.914;12.566;2023-05-23T05:39:11;15.47;;;12.10;;
37409;SDS011;23275;48.914;12.566;2023-05-23T05:41:38;13.85;;;12.35;;
37409;SDS011;23275;48.914;12.566;2023-05-23T05:44:04;14.68;;;11.98;;
37409;SDS011;23275;48.914;12.566;2023-05-23T05:46:30;13.77;;;12.00;;
37409;SDS011;23275;48.914;12.566;2023-05-23T05:48:56;15.38;;;11.80;;
37409;SDS011;23275;48.914;12.566;2023-05-23T05:51:21;16.95;;;12.25;;
37409;SDS011;23275;48.914;12.566;2023-05-23T05:53:47;15.30;;;12.00;;
37409;SDS011;23275;48.914;12.566;2023-05-23T05:56:13;14.35;;;12.82;;
37409;SDS011;23275;48.914;12.566;2023-05-23T05:58:39;15.82;;;12.25;;
37409;SDS011;23275;48.914;12.566;2023-05-23T06:01:05;12.82;;;10.68;;
37409;SDS011;23275;48.914;12.566;2023-05-23T06:03:31;13.80;;;11.50;;
37409;SDS011;23275;48.914;12.566;2023-05-23T06:05:57;14.07;;;11.75;;
37409;SDS011;23275;48.914;12.566;2023-05-23T06:08:23;14.35;;;10.98;;
37409;SDS011;23275;48.914;12.566;2023-05-23T06:10:49;12.90;;;11.50;;
37409;SDS011;23275;48.914;12.566;2023-05-23T06:13:15;13.52;;;10.65;;
37409;SDS011;23275;48.914;12.566;2023-05-23T06:15:41;14.95;;;10.70;;
37409;SDS011;23275;48.914;12.566;2023-05-23T06:18:07;12.90;;;10.15;;
37409;SDS011;23275;48.914;12.566;2023-05-23T06:20:32;14.55;;;10.60;;
37409;SDS011;23275;48.914;12.566;2023-05-23T06:22:58;13.40;;;10.48;;
37409;SDS011;23275;48.914;12.566;2023-05-23T06:25:24;11.88;;;9.70;;
37409;SDS011;23275;48.914;12.566;2023-05-23T06:27:49;11.38;;;9.68;;
37409;SDS011;23275;48.914;12.566;2023-05-23T06:30:15;12.15;;;9.80;;
37409;SDS011;23275;48.914;12.566;2023-05-23T06:32:41;14.30;;;10.30;;
37409;SDS011;23275;48.914;12.566;2023-05-23T06:35:06;11.73;;;9.93;;
37409;SDS011;23275;48.914;12.566;2023-05-23T06:37:32;14.18;;;10.00;;
37409;SDS011;23275;48.914;12.566;2023-05-23T06:39:58;12.60;;;9.80;;
37409;SDS011;23275;48.914;12.566;2023-05-23T06:42:24;12.98;;;10.25;;
37409;SDS011;23275;48.914;12.566;2023-05-23T06:44:50;13.82;;;9.82;;
37409;SDS011;23275;48.914;12.566;2023-05-23T06:47:16;17.95;;;10.05;;
37409;SDS011;23275;48.914;12.566;2023-05-23T06:49:41;12.07;;;9.10;;
37409;SDS011;23275;48.914;12.566;2023-05-23T06:52:07;12.23;;;8.98;;
37409;SDS011;23275;48.914;12.566;2023-05-23T06:54:32;13.27;;;9.35;;
37409;SDS011;23275;48.914;12.566;2023-05-23T06:56:58;17.80;;;9.65;;
37409;SDS011;23275;48.914;12.566;2023-05-23T06:59:23;12.68;;;9.25;;
37409;SDS011;23275;48.914;12.566;2023-05-23T07:01:49;11.88;;;9.68;;
37409;SDS011;23275;48.914;12.566;2023-05-23T07:04:15;14.52;;;9.13;;
37409;SDS011;23275;48.914;12.566;2023-05-23T07:06:40;15.75;;;9.23;;
37409;SDS011;23275;48.914;12.566;2023-05-23T07:09:06;11.40;;;9.10;;
37409;SDS011;23275;48.914;12.566;2023-05-23T07:11:32;12.45;;;9.82;;
37409;SDS011;23275;48.914;12.566;2023-05-23T07:13:59;10.70;;;8.25;;
37409;SDS011;23275;48.914;12.566;2023-05-23T07:16:25;12.10;;;9.30;;
37409;SDS011;23275;48.914;12.566;2023-05-23T07:18:50;10.68;;;8.80;;
37409;SDS011;23275;48.914;12.566;2023-05-23T07:21:16;11.50;;;9.05;;
37409;SDS011;23275;48.914;12.566;2023-05-23T07:23:41;12.85;;;9.52;;
37409;SDS011;23275;48.914;12.566;2023-05-23T07:26:07;11.20;;;9.18;;
37409;SDS011;23275;48.914;12.566;2023-05-23T07:28:33;11.52;;;9.35;;
37409;SDS011;23275;48.914;12.566;2023-05-23T07:30:59;10.15;;;9.00;;
37409;SDS011;23275;48.914;12.566;2023-05-23T07:33:25;10.75;;;8.90;;
37409;SDS011;23275;48.914;12.566;2023-05-23T07:35:51;9.60;;;8.60;;
37409;SDS011;23275;48.914;12.566;2023-05-23T07:38:16;11.27;;;9.15;;
37409;SDS011;23275;48.914;12.566;2023-05-23T07:40:42;11.38;;;9.32;;
37409;SDS011;23275;48.914;12.566;2023-05-23T07:43:07;11.27;;;8.65;;
37409;SDS011;23275;48.914;12.566;2023-05-23T07:45:33;10.05;;;8.52;;
37409;SDS011;23275;48.914;12.566;2023-05-23T07:47:58;10.85;;;8.60;;
37409;SDS011;23275;48.914;12.566;2023-05-23T07:50:24;11.85;;;8.52;;
37409;SDS011;23275;48.914;12.566;2023-05-23T07:52:51;10.65;;;8.13;;
37409;SDS011;23275;48.914;12.566;2023-05-23T07:55:17;9.82;;;8.25;;
37409;SDS011;23275;48.914;12.566;2023-05-23T07:57:43;8.88;;;7.65;;
37409;SDS011;23275;48.914;12.566;2023-05-23T08:00:08;11.02;;;8.02;;
37409;SDS011;23275;48.914;12.566;2023-05-23T08:02:34;10.18;;;8.32;;
37409;SDS011;23275;48.914;12.566;2023-05-23T08:05:00;10.65;;;8.38;;
37409;SDS011;23275;48.914;12.566;2023-05-23T08:07:26;10.20;;;8.25;;
37409;SDS011;23275;48.914;12.566;2023-05-23T08:09:52;10.73;;;8.32;;
37409;SDS011;23275;48.914;12.566;2023-05-23T08:12:17;11.38;;;7.90;;
37409;SDS011;23275;48.914;12.566;2023-05-23T08:14:43;11.80;;;7.60;;
37409;SDS011;23275;48.914;12.566;2023-05-23T08:17:09;13.30;;;8.70;;
37409;SDS011;23275;48.914;12.566;2023-05-23T08:19:36;12.85;;;7.80;;
37409;SDS011;23275;48.914;12.566;2023-05-23T08:22:02;12.40;;;8.55;;
37409;SDS011;23275;48.914;12.566;2023-05-23T08:24:28;9.68;;;8.57;;
37409;SDS011;23275;48.914;12.566;2023-05-23T08:26:54;13.55;;;8.23;;
37409;SDS011;23275;48.914;12.566;2023-05-23T08:29:20;10.90;;;8.40;;
37409;SDS011;23275;48.914;12.566;2023-05-23T08:31:46;9.98;;;8.75;;
37409;SDS011;23275;48.914;12.566;2023-05-23T08:34:11;11.40;;;9.73;;
37409;SDS011;23275;48.914;12.566;2023-05-23T08:36:38;13.77;;;8.85;;
37409;SDS011;23275;48.914;12.566;2023-05-23T08:39:04;12.13;;;9.30;;
37409;SDS011;23275;48.914;12.566;2023-05-23T08:41:29;10.43;;;8.90;;
37409;SDS011;23275;48.914;12.566;2023-05-23T08:43:58;11.70;;;9.23;;
37409;SDS011;23275;48.914;12.566;2023-05-23T08:46:24;13.55;;;9.30;;
37409;SDS011;23275;48.914;12.566;2023-05-23T08:48:51;9.85;;;7.85;;
37409;SDS011;23275;48.914;12.566;2023-05-23T08:51:24;12.43;;;8.50;;
37409;SDS011;23275;48.914;12.566;2023-05-23T08:53:51;9.93;;;7.55;;
37409;SDS011;23275;48.914;12.566;2023-05-23T08:56:18;9.23;;;7.65;;
37409;SDS011;23275;48.914;12.566;2023-05-23T08:58:44;11.23;;;8.25;;
37409;SDS011;23275;48.914;12.566;2023-05-23T09:01:11;8.30;;;7.35;;
37409;SDS011;23275;48.914;12.566;2023-05-23T09:03:39;9.77;;;7.13;;
37409;SDS011;23275;48.914;12.566;2023-05-23T09:06:08;9.98;;;7.47;;
37409;SDS011;23275;48.914;12.566;2023-05-23T09:08:35;8.05;;;7.05;;
37409;SDS011;23275;48.914;12.566;2023-05-23T09:11:01;9.45;;;6.82;;
37409;SDS011;23275;48.914;12.566;2023-05-23T09:13:29;13.43;;;8.10;;
37409;SDS011;23275;48.914;12.566;2023-05-23T09:16:04;9.48;;;6.88;;
37409;SDS011;23275;48.914;12.566;2023-05-23T09:18:38;9.13;;;7.05;;
37409;SDS011;23275;48.914;12.566;2023-05-23T09:21:06;9.65;;;7.35;;
37409;SDS011;23275;48.914;12.566;2023-05-23T09:23:32;7.90;;;5.85;;
37409;SDS011;23275;48.914;12.566;2023-05-23T09:26:02;7.50;;;5.95;;
37409;SDS011;23275;48.914;12.566;2023-05-23T09:31:01;7.57;;;6.25;;
37409;SDS011;23275;48.914;12.566;2023-05-23T09:36:06;8.65;;;6.13;;
37409;SDS011;23275;48.914;12.566;2023-05-23T09:38:33;9.60;;;5.80;;
37409;SDS011;23275;48.914;12.566;2023-05-23T09:41:02;7.80;;;6.00;;
37409;SDS011;23275;48.914;12.566;2023-05-23T09:43:28;11.75;;;6.18;;
37409;SDS011;23275;48.914;12.566;2023-05-23T09:45:54;7.60;;;6.05;;
37409;SDS011;23275;48.914;12.566;2023-05-23T09:48:26;9.73;;;7.10;;
37409;SDS011;23275;48.914;12.566;2023-05-23T09:50:54;7.03;;;5.82;;
37409;SDS011;23275;48.914;12.566;2023-05-23T09:53:19;9.98;;;6.25;;
37409;SDS011;23275;48.914;12.566;2023-05-23T09:55:47;10.32;;;6.15;;
37409;SDS011;23275;48.914;12.566;2023-05-23T09:58:19;7.82;;;5.38;;
37409;SDS011;23275;48.914;12.566;2023-05-23T10:00:48;7.45;;;5.30;;
37409;SDS011;23275;48.914;12.566;2023-05-23T10:03:16;7.72;;;5.68;;
37409;SDS011;23275;48.914;12.566;2023-05-23T10:05:48;8.68;;;6.18;;
37409;SDS011;23275;48.914;12.566;2023-05-23T10:08:36;7.15;;;5.13;;
37409;SDS011;23275;48.914;12.566;2023-05-23T10:13:42;8.82;;;4.85;;
37409;SDS011;23275;48.914;12.566;2023-05-23T10:16:18;6.65;;;4.88;;
37409;SDS011;23275;48.914;12.566;2023-05-23T10:21:20;7.88;;;5.07;;
37409;SDS011;23275;48.914;12.566;2023-05-23T10:23:49;8.38;;;5.25;;
37409;SDS011;23275;48.914;12.566;2023-05-23T10:26:15;6.50;;;5.10;;
37409;SDS011;23275;48.914;12.566;2023-05-23T10:28:41;6.72;;;5.32;;
37409;SDS011;23275;48.914;12.566;2023-05-23T10:31:09;5.47;;;4.70;;
37409;SDS011;23275;48.914;12.566;2023-05-23T10:33:38;6.95;;;5.53;;
37409;SDS011;23275;48.914;12.566;2023-05-23T10:36:08;7.38;;;5.13;;
37409;SDS011;23275;48.914;12.566;2023-05-23T10:38:45;6.47;;;4.70;;
37409;SDS011;23275;48.914;12.566;2023-05-23T10:46:50;8.70;;;4.90;;
37409;SDS011;23275;48.914;12.566;2023-05-23T10:49:17;6.90;;;4.70;;
37409;SDS011;23275;48.914;12.566;2023-05-23T10:51:45;8.07;;;5.10;;
37409;SDS011;23275;48.914;12.566;2023-05-23T10:54:17;7.82;;;5.05;;
37409;SDS011;23275;48.914;12.566;2023-05-23T10:56:47;7.45;;;5.25;;
37409;SDS011;23275;48.914;12.566;2023-05-23T10:59:26;5.88;;;4.72;;
37409;SDS011;23275;48.914;12.566;2023-05-23T11:01:52;7.93;;;5.10;;
37409;SDS011;23275;48.914;12.566;2023-05-23T11:04:26;8.00;;;4.68;;
37409;SDS011;23275;48.914;12.566;2023-05-23T11:06:53;7.75;;;4.45;;
37409;SDS011;23275;48.914;12.566;2023-05-23T11:09:21;6.57;;;4.82;;
37409;SDS011;23275;48.914;12.566;2023-05-23T11:16:57;11.23;;;5.50;;
37409;SDS011;23275;48.914;12.566;2023-05-23T11:19:24;7.30;;;5.13;;
37409;SDS011;23275;48.914;12.566;2023-05-23T11:21:55;8.27;;;5.70;;
37409;SDS011;23275;48.914;12.566;2023-05-23T11:24:30;7.85;;;5.50;;
37409;SDS011;23275;48.914;12.566;2023-05-23T11:27:12;8.07;;;6.15;;
37409;SDS011;23275;48.914;12.566;2023-05-23T11:29:38;6.85;;;5.25;;
37409;SDS011;23275;48.914;12.566;2023-05-23T11:32:10;9.48;;;5.50;;
37409;SDS011;23275;48.914;12.566;2023-05-23T11:34:37;5.93;;;5.32;;
37409;SDS011;23275;48.914;12.566;2023-05-23T11:37:03;11.05;;;5.55;;
37409;SDS011;23275;48.914;12.566;2023-05-23T11:39:29;7.75;;;5.50;;
37409;SDS011;23275;48.914;12.566;2023-05-23T11:42:01;6.63;;;5.80;;
37409;SDS011;23275;48.914;12.566;2023-05-23T11:44:27;12.40;;;5.18;;
37409;SDS011;23275;48.914;12.566;2023-05-23T11:47:00;10.88;;;5.25;;
37409;SDS011;23275;48.914;12.566;2023-05-23T11:49:30;13.18;;;5.72;;
37409;SDS011;23275;48.914;12.566;2023-05-23T11:52:04;10.43;;;6.10;;
37409;SDS011;23275;48.914;12.566;2023-05-23T11:54:31;9.10;;;5.75;;
37409;SDS011;23275;48.914;12.566;2023-05-23T11:56:57;11.70;;;5.85;;
37409;SDS011;23275;48.914;12.566;2023-05-23T11:59:23;7.55;;;5.60;;
37409;SDS011;23275;48.914;12.566;2023-05-23T12:01:50;9.52;;;5.85;;
37409;SDS011;23275;48.914;12.566;2023-05-23T12:04:16;11.30;;;5.80;;
37409;SDS011;23275;48.914;12.566;2023-05-23T12:06:45;6.95;;;5.22;;
37409;SDS011;23275;48.914;12.566;2023-05-23T12:11:38;11.90;;;5.68;;
37409;SDS011;23275;48.914;12.566;2023-05-23T12:14:05;7.57;;;5.90;;
37409;SDS011;23275;48.914;12.566;2023-05-23T12:16:32;6.78;;;5.70;;
37409;SDS011;23275;48.914;12.566;2023-05-23T12:18:58;9.75;;;5.07;;
37409;SDS011;23275;48.914;12.566;2023-05-23T12:21:25;7.43;;;5.30;;
37409;SDS011;23275;48.914;12.566;2023-05-23T12:23:51;8.10;;;5.30;;
37409;SDS011;23275;48.914;12.566;2023-05-23T12:26:17;11.00;;;5.47;;
37409;SDS011;23275;48.914;12.566;2023-05-23T12:28:43;7.70;;;5.38;;
37409;SDS011;23275;48.914;12.566;2023-05-23T12:33:44;11.48;;;6.03;;
37409;SDS011;23275;48.914;12.566;2023-05-23T12:36:12;8.82;;;5.78;;
37409;SDS011;23275;48.914;12.566;2023-05-23T12:38:39;7.38;;;5.07;;
37409;SDS011;23275;48.914;12.566;2023-05-23T12:43:38;8.98;;;5.80;;
37409;SDS011;23275;48.914;12.566;2023-05-23T12:46:04;7.38;;;5.47;;
37409;SDS011;23275;48.914;12.566;2023-05-23T12:48:31;6.53;;;5.28;;
37409;SDS011;23275;48.914;12.566;2023-05-23T12:50:57;7.22;;;5.30;;
37409;SDS011;23275;48.914;12.566;2023-05-23T12:53:23;7.78;;;5.63;;
37409;SDS011;23275;48.914;12.566;2023-05-23T12:55:49;8.30;;;5.43;;
37409;SDS011;23275;48.914;12.566;2023-05-23T12:58:15;8.35;;;5.10;;
37409;SDS011;23275;48.914;12.566;2023-05-23T13:00:41;7.60;;;6.03;;
37409;SDS011;23275;48.914;12.566;2023-05-23T13:03:08;7.88;;;5.32;;
37409;SDS011;23275;48.914;12.566;2023-05-23T13:05:33;6.28;;;5.40;;
37409;SDS011;23275;48.914;12.566;2023-05-23T13:07:59;7.97;;;5.18;;
37409;SDS011;23275;48.914;12.566;2023-05-23T13:10:24;6.45;;;5.00;;
37409;SDS011;23275;48.914;12.566;2023-05-23T13:12:50;8.23;;;5.85;;
37409;SDS011;23275;48.914;12.566;2023-05-23T13:15:16;9.70;;;5.20;;
37409;SDS011;23275;48.914;12.566;2023-05-23T13:17:41;7.65;;;5.30;;
37409;SDS011;23275;48.914;12.566;2023-05-23T13:20:07;10.75;;;5.10;;
37409;SDS011;23275;48.914;12.566;2023-05-23T13:22:33;16.40;;;6.20;;
37409;SDS011;23275;48.914;12.566;2023-05-23T13:24:59;13.38;;;5.68;;
37409;SDS011;23275;48.914;12.566;2023-05-23T13:27:24;7.28;;;5.50;;
37409;SDS011;23275;48.914;12.566;2023-05-23T13:29:50;8.52;;;5.57;;
37409;SDS011;23275;48.914;12.566;2023-05-23T13:32:16;7.68;;;5.22;;
37409;SDS011;23275;48.914;12.566;2023-05-23T13:34:41;8.60;;;5.15;;
37409;SDS011;23275;48.914;12.566;2023-05-23T13:37:07;9.85;;;5.57;;
37409;SDS011;23275;48.914;12.566;2023-05-23T13:39:33;7.20;;;5.28;;
37409;SDS011;23275;48.914;12.566;2023-05-23T13:41:58;7.50;;;4.80;;
37409;SDS011;23275;48.914;12.566;2023-05-23T13:44:24;8.48;;;5.60;;
37409;SDS011;23275;48.914;12.566;2023-05-23T13:46:49;7.10;;;5.10;;
37409;SDS011;23275;48.914;12.566;2023-05-23T13:49:15;10.85;;;5.15;;
37409;SDS011;23275;48.914;12.566;2023-05-23T13:51:40;10.02;;;4.95;;
37409;SDS011;23275;48.914;12.566;2023-05-23T13:54:07;8.60;;;4.82;;
37409;SDS011;23275;48.914;12.566;2023-05-23T13:56:33;8.48;;;5.05;;
37409;SDS011;23275;48.914;12.566;2023-05-23T13:58:58;9.55;;;4.55;;
37409;SDS011;23275;48.914;12.566;2023-05-23T14:01:24;7.93;;;5.50;;
37409;SDS011;23275;48.914;12.566;2023-05-23T14:03:50;10.82;;;5.38;;
37409;SDS011;23275;48.914;12.566;2023-05-23T14:06:15;8.63;;;5.53;;
37409;SDS011;23275;48.914;12.566;2023-05-23T14:08:41;7.22;;;5.05;;
37409;SDS011;23275;48.914;12.566;2023-05-23T14:11:07;9.70;;;5.30;;
37409;SDS011;23275;48.914;12.566;2023-05-23T14:13:32;10.43;;;5.43;;
37409;SDS011;23275;48.914;12.566;2023-05-23T14:15:58;6.60;;;5.10;;
37409;SDS011;23275;48.914;12.566;2023-05-23T14:18:23;8.93;;;4.82;;
37409;SDS011;23275;48.914;12.566;2023-05-23T14:20:49;10.55;;;4.82;;
37409;SDS011;23275;48.914;12.566;2023-05-23T14:23:14;8.07;;;5.53;;
37409;SDS011;23275;48.914;12.566;2023-05-23T14:25:40;9.60;;;5.32;;
37409;SDS011;23275;48.914;12.566;2023-05-23T14:28:06;10.25;;;5.47;;
37409;SDS011;23275;48.914;12.566;2023-05-23T14:30:31;7.72;;;5.13;;
37409;SDS011;23275;48.914;12.566;2023-05-23T14:32:57;8.23;;;5.00;;
37409;SDS011;23275;48.914;12.566;2023-05-23T14:35:23;8.75;;;4.90;;
37409;SDS011;23275;48.914;12.566;2023-05-23T14:37:50;10.70;;;4.60;;
37409;SDS011;23275;48.914;12.566;2023-05-23T14:40:15;7.35;;;4.80;;
37409;SDS011;23275;48.914;12.566;2023-05-23T14:42:41;7.30;;;4.80;;
37409;SDS011;23275;48.914;12.566;2023-05-23T14:45:06;8.63;;;4.53;;
37409;SDS011;23275;48.914;12.566;2023-05-23T14:47:32;9.38;;;5.03;;
37409;SDS011;23275;48.914;12.566;2023-05-23T14:49:59;8.63;;;5.03;;
37409;SDS011;23275;48.914;12.566;2023-05-23T14:52:25;12.82;;;4.70;;
37409;SDS011;23275;48.914;12.566;2023-05-23T14:54:50;8.48;;;4.80;;